Time;durP1;ratioP1;P1;durP2;ratioP2;P2;SDS_P1;SDS_P2;PMS_P1;PMS_P2;Temp;Humidity;BMP_temperature;BMP_pressure;BME280_temperature;BME280_humidity;BME280_pressure;Samples;Min_cycle;Max_cycle;Signal;HPM_P1;HPM_P2
2021/03/09 00:01:51;;;;;;;;;;;;;;;-3.50;59.75;96822.96;1804273;79;20223;-68
2021/03/09 00:04:18;;;;;;;;;;;;;;;-3.49;59.60;96820.81;1806557;79;21159;-68
2021/03/09 00:06:46;;;;;;;;;;;;;;;-3.48;59.63;96821.68;1818454;79;20252;-67
2021/03/09 00:09:14;;;;;;;;;;;;;;;-3.45;59.54;96826.28;1811013;79;20236;-66
2021/03/09 00:11:41;;;;;;;;;;;;;;;-3.39;59.55;96823.69;1804907;79;20220;-65
2021/03/09 00:14:09;;;;;;;;;;;;;;;-3.28;59.28;96825.25;1791746;79;20238;-65
2021/03/09 00:16:36;;;;;;;;;;;;;;;-3.17;58.75;96823.42;1814019;79;20979;-63
2021/03/09 00:19:04;;;;;;;;;;;;;;;-3.08;58.65;96817.38;1798720;79;20242;-67
2021/03/09 00:21:31;;;;;;;;;;;;;;;-3.00;58.60;96821.48;1787080;79;20238;-67
2021/03/09 00:23:58;;;;;;;;;;;;;;;-2.92;57.95;96811.23;1799720;79;20317;-65
2021/03/09 00:26:26;;;;;;;;;;;;;;;-2.94;57.66;96816.77;1795656;79;20269;-65
2021/03/09 00:28:53;;;;;;;;;;;;;;;-2.91;57.77;96818.01;1806177;79;21375;-65
2021/03/09 00:31:20;;;;;;;;;;;;;;;-2.83;57.65;96819.15;1809845;79;20222;-65
2021/03/09 00:33:48;;;;;;;;;;;;;;;-2.80;57.26;96814.03;1795010;79;20228;-65
2021/03/09 00:36:15;;;;;;;;;;;;;;;-2.84;57.42;96815.78;1809738;79;20210;-64
2021/03/09 00:38:42;;;;;;;;;;;;;;;-2.78;57.11;96813.16;1784374;79;20231;-65
2021/03/09 00:41:09;;;;;;;;;;;;;;;-2.77;56.92;96815.27;1778169;79;21241;-64
2021/03/09 00:43:36;;;;;;;;;;;;;;;-2.81;57.00;96816.19;1803989;79;20244;-64
2021/03/09 00:46:04;;;;;;;;;;;;;;;-2.83;56.90;96815.34;1788266;79;20218;-65
2021/03/09 00:48:36;;;;;;;;;;;;;;;-2.91;57.01;96824.36;1770622;80;20212;-64
2021/03/09 00:51:04;;;;;;;;;;;;;;;-2.93;57.20;96818.88;1763724;80;20228;-64
2021/03/09 00:53:31;;;;;;;;;;;;;;;-2.90;57.03;96815.03;1781311;80;21261;-64
2021/03/09 00:55:59;;;;;;;;;;;;;;;-2.91;57.07;96812.92;1757441;80;20245;-64
2021/03/09 00:58:26;;;;;;;;;;;;;;;-2.91;56.96;96818.41;1768076;80;20286;-64
2021/03/09 01:00:54;;;;;;;;;;;;;;;-2.85;57.06;96807.74;1756625;80;20243;-64
2021/03/09 01:03:22;;;;;;;;;;;;;;;-2.70;56.73;96816.84;1783857;80;21642;-64
2021/03/09 01:05:49;;;;;;;;;;;;;;;-2.75;56.43;96815.24;1784656;80;21211;-64
2021/03/09 01:08:17;;;;;;;;;;;;;;;-2.82;56.63;96810.69;1778975;80;20278;-64
2021/03/09 01:10:44;;;;;;;;;;;;;;;-2.89;56.46;96807.39;1767052;80;20223;-64
2021/03/09 01:13:11;;;;;;;;;;;;;;;-2.93;56.38;96817.16;1770852;80;20236;-64
2021/03/09 01:15:39;;;;;;;;;;;;;;;-3.00;56.41;96818.12;1781494;80;20231;-64
2021/03/09 01:18:08;;;;;;;;;;;;;;;-3.13;56.67;96814.06;1780229;80;21354;-64
2021/03/09 01:20:36;;;;;;;;;;;;;;;-3.25;57.07;96815.06;1773780;80;20282;-65
2021/03/09 01:23:03;;;;;;;;;;;;;;;-3.28;57.21;96810.85;1760113;80;20226;-64
2021/03/09 01:25:31;;;;;;;;;;;;;;;-3.30;57.42;96807.50;1772450;80;20216;-64
2021/03/09 01:27:58;;;;;;;;;;;;;;;-3.28;57.41;96807.05;1765514;80;20222;-64
2021/03/09 01:30:25;;;;;;;;;;;;;;;-3.29;57.37;96809.59;1750510;80;23374;-65
2021/03/09 01:32:52;;;;;;;;;;;;;;;-3.28;57.47;96806.22;1761015;80;20231;-65
2021/03/09 01:35:20;;;;;;;;;;;;;;;-3.25;57.32;96803.20;1777231;80;20220;-65
2021/03/09 01:37:47;;;;;;;;;;;;;;;-3.24;57.29;96801.09;1782364;80;20220;-65
2021/03/09 01:40:15;;;;;;;;;;;;;;;-3.20;57.12;96800.61;1784407;80;20216;-65
2021/03/09 01:42:42;;;;;;;;;;;;;;;-3.21;57.09;96800.19;1765177;80;21199;-62
2021/03/09 01:45:10;;;;;;;;;;;;;;;-3.23;57.21;96800.65;1756578;80;20226;-62
2021/03/09 01:47:40;;;;;;;;;;;;;;;-3.17;57.20;96796.77;1793387;79;20257;-62
2021/03/09 01:50:08;;;;;;;;;;;;;;;-3.11;57.03;96794.13;1813188;79;20778;-63
2021/03/09 01:52:36;;;;;;;;;;;;;;;-3.04;56.87;96798.28;1815495;79;20259;-63
2021/03/09 01:55:06;;;;;;;;;;;;;;;-3.02;56.74;96796.56;1791221;79;21213;-64
2021/03/09 01:57:34;;;;;;;;;;;;;;;-2.96;56.74;96798.19;1815890;79;20283;-65
2021/03/09 02:00:03;;;;;;;;;;;;;;;-2.98;56.59;96793.13;1808555;79;20220;-64
2021/03/09 02:02:33;;;;;;;;;;;;;;;-2.99;56.55;96792.71;1784801;80;20230;-64
2021/03/09 02:05:01;;;;;;;;;;;;;;;-3.06;56.69;96800.02;1786352;79;20494;-64
2021/03/09 02:07:28;;;;;;;;;;;;;;;-3.12;56.97;96792.47;1794262;79;21211;-64
2021/03/09 02:09:55;;;;;;;;;;;;;;;-3.15;56.95;96794.61;1792782;78;20640;-64
2021/03/09 02:12:24;;;;;;;;;;;;;;;-3.16;57.10;96801.83;1762229;79;20235;-64
2021/03/09 02:15:12;;;;;;;;;;;;;;;-3.21;57.18;96800.19;1798258;79;20219;-64
2021/03/09 02:18:02;;;;;;;;;;;;;;;-3.23;57.21;96801.92;1795405;79;20494;-65
2021/03/09 02:21:06;;;;;;;;;;;;;;;-3.26;57.16;96798.14;1804232;79;21210;-66
2021/03/09 02:24:12;;;;;;;;;;;;;;;-3.32;57.33;96806.69;1813567;79;20252;-62
2021/03/09 02:27:08;;;;;;;;;;;;;;;-3.40;57.37;96804.67;1756099;80;20215;-63
2021/03/09 02:29:51;;;;;;;;;;;;;;;-3.48;57.53;96811.09;1765268;80;20238;-63
2021/03/09 02:32:20;;;;;;;;;;;;;;;-3.53;57.67;96819.19;1770219;80;21484;-63
2021/03/09 02:34:50;;;;;;;;;;;;;;;-3.59;57.73;96821.34;1779727;80;21649;-62
2021/03/09 02:37:17;;;;;;;;;;;;;;;-3.65;58.03;96826.51;1764985;80;20820;-63
2021/03/09 02:39:46;;;;;;;;;;;;;;;-3.64;58.20;96819.29;1755651;81;20218;-63
2021/03/09 02:42:17;;;;;;;;;;;;;;;-3.50;58.01;96819.16;1754564;82;20284;-63
2021/03/09 02:44:44;;;;;;;;;;;;;;;-3.43;57.50;96818.66;1740861;81;20233;-64
2021/03/09 02:47:12;;;;;;;;;;;;;;;-3.45;57.43;96818.67;1754785;82;21258;-64
2021/03/09 02:49:40;;;;;;;;;;;;;;;-3.49;57.36;96823.35;1759426;81;20224;-61
2021/03/09 02:52:08;;;;;;;;;;;;;;;-3.56;57.47;96823.85;1759256;81;20224;-60
2021/03/09 02:54:35;;;;;;;;;;;;;;;-3.58;57.54;96829.81;1779581;80;20528;-62
2021/03/09 02:57:03;;;;;;;;;;;;;;;-3.60;57.59;96829.83;1754613;82;21616;-62
2021/03/09 02:59:30;;;;;;;;;;;;;;;-3.57;57.59;96831.07;1737810;81;21355;-63
2021/03/09 03:01:57;;;;;;;;;;;;;;;-3.56;57.56;96833.17;1754696;82;20500;-62
2021/03/09 03:04:25;;;;;;;;;;;;;;;-3.62;57.57;96831.55;1754675;82;20221;-63
2021/03/09 03:06:52;;;;;;;;;;;;;;;-3.62;57.73;96837.03;1720638;81;20780;-63
2021/03/09 03:09:20;;;;;;;;;;;;;;;-3.59;57.60;96832.76;1768062;80;20234;-64
2021/03/09 03:11:48;;;;;;;;;;;;;;;-3.51;57.83;96838.59;1766690;80;21202;-61
2021/03/09 03:14:16;;;;;;;;;;;;;;;-3.35;57.45;96837.17;1745176;82;20488;-62
2021/03/09 03:16:45;;;;;;;;;;;;;;;-3.23;56.92;96842.52;1731759;82;20230;-65
2021/03/09 03:19:13;;;;;;;;;;;;;;;-3.20;56.55;96840.78;1756035;80;20233;-67
2021/03/09 03:21:41;;;;;;;;;;;;;;;-3.25;56.37;96845.52;1712350;82;20239;-66
2021/03/09 03:24:09;;;;;;;;;;;;;;;-3.22;56.52;96844.22;1740415;81;21208;-63
2021/03/09 03:26:39;;;;;;;;;;;;;;;-3.11;56.34;96849.14;1730011;81;20270;-63
2021/03/09 03:29:07;;;;;;;;;;;;;;;-3.04;56.10;96846.52;1739234;80;20213;-64
2021/03/09 03:31:34;;;;;;;;;;;;;;;-3.03;55.53;96846.08;1748197;80;20280;-65
2021/03/09 03:34:03;;;;;;;;;;;;;;;-3.17;55.47;96844.55;1750736;80;20215;-62
2021/03/09 03:36:35;;;;;;;;;;;;;;;-3.29;55.83;96842.18;1760483;80;21202;-62
2021/03/09 03:39:02;;;;;;;;;;;;;;;-3.27;55.73;96848.48;1750470;80;20263;-64
2021/03/09 03:41:31;;;;;;;;;;;;;;;-3.28;55.49;96854.43;1742608;80;20835;-67
2021/03/09 03:43:58;;;;;;;;;;;;;;;-3.34;55.46;96856.19;1752814;80;20346;-67
2021/03/09 03:46:26;;;;;;;;;;;;;;;-3.38;55.31;96851.98;1750052;80;20494;-65
2021/03/09 03:48:54;;;;;;;;;;;;;;;-3.44;55.26;96853.31;1744774;80;21381;-66
2021/03/09 03:51:29;;;;;;;;;;;;;;;-3.60;55.49;96850.12;1750830;82;20230;-66
2021/03/09 03:54:17;;;;;;;;;;;;;;;-3.73;55.65;96850.67;1759724;80;20220;-67
2021/03/09 03:56:50;;;;;;;;;;;;;;;-3.89;56.00;96849.97;1750719;80;21478;-68
2021/03/09 03:59:26;;;;;;;;;;;;;;;-3.99;56.26;96848.38;1739616;80;20553;-65
2021/03/09 04:01:54;;;;;;;;;;;;;;;-4.12;56.46;96852.70;1743441;80;22286;-73
2021/03/09 04:04:23;;;;;;;;;;;;;;;-4.19;56.76;96853.62;1751829;80;20218;-63
2021/03/09 04:06:52;;;;;;;;;;;;;;;-4.18;56.79;96856.55;1746507;80;20502;-64
2021/03/09 04:09:23;;;;;;;;;;;;;;;-4.25;56.65;96850.69;1746267;80;20266;-66
2021/03/09 04:11:50;;;;;;;;;;;;;;;-4.34;56.68;96860.05;1756034;80;20229;-66
2021/03/09 04:14:19;;;;;;;;;;;;;;;-4.48;56.84;96856.36;1771210;80;21201;-67
2021/03/09 04:16:47;;;;;;;;;;;;;;;-4.65;57.10;96858.58;1747438;81;20308;-68
2021/03/09 04:19:15;;;;;;;;;;;;;;;-4.74;57.58;96856.53;1756430;80;20221;-67
2021/03/09 04:21:42;;;;;;;;;;;;;;;-4.76;57.61;96861.59;1760079;80;20995;-67
2021/03/09 04:24:10;;;;;;;;;;;;;;;-4.78;57.82;96865.84;1749470;80;20494;-65
2021/03/09 04:26:39;;;;;;;;;;;;;;;-4.77;57.69;96867.53;1755997;80;21207;-65
2021/03/09 04:29:10;;;;;;;;;;;;;;;-4.75;57.76;96872.16;1744955;81;20244;-66
2021/03/09 04:31:38;;;;;;;;;;;;;;;-4.70;57.76;96870.87;1740097;81;20296;-67
2021/03/09 04:34:06;;;;;;;;;;;;;;;-4.70;57.54;96870.87;1771475;81;20225;-69
2021/03/09 04:36:33;;;;;;;;;;;;;;;-4.71;57.57;96868.73;1748105;81;20494;-70
2021/03/09 04:39:03;;;;;;;;;;;;;;;-4.69;57.28;96875.06;1755994;81;22248;-69
2021/03/09 04:41:32;;;;;;;;;;;;;;;-4.69;57.53;96878.86;1755934;80;20622;-69
2021/03/09 04:44:00;;;;;;;;;;;;;;;-4.62;57.42;96876.29;1756685;80;20228;-68
2021/03/09 04:46:27;;;;;;;;;;;;;;;-4.62;57.45;96871.66;1750252;81;20461;-67
2021/03/09 04:48:55;;;;;;;;;;;;;;;-4.66;57.27;96878.84;1754295;80;20226;-67
2021/03/09 04:51:24;;;;;;;;;;;;;;;-4.68;57.33;96878.84;1754461;80;21675;-65
2021/03/09 04:53:51;;;;;;;;;;;;;;;-4.72;57.38;96878.88;1759112;80;20235;-68
2021/03/09 04:56:18;;;;;;;;;;;;;;;-4.79;57.48;96881.86;1753861;80;20229;-67
2021/03/09 04:58:45;;;;;;;;;;;;;;;-4.88;57.54;96880.66;1743649;81;22278;-68
2021/03/09 05:01:12;;;;;;;;;;;;;;;-5.01;57.90;96883.23;1753770;80;20220;-69
2021/03/09 05:03:40;;;;;;;;;;;;;;;-5.05;57.90;96876.52;1757005;80;21208;-68
2021/03/09 05:06:08;;;;;;;;;;;;;;;-4.94;57.83;96880.69;1772668;80;21949;-69
2021/03/09 05:08:35;;;;;;;;;;;;;;;-4.79;57.58;96882.30;1745124;81;20497;-68
2021/03/09 05:11:02;;;;;;;;;;;;;;;-4.64;57.22;96883.47;1740977;82;20219;-67
2021/03/09 05:13:31;;;;;;;;;;;;;;;-4.61;56.86;96884.72;1746138;80;20227;-68
2021/03/09 05:15:59;;;;;;;;;;;;;;;-4.51;56.71;96881.70;1752621;80;22371;-67
2021/03/09 05:18:27;;;;;;;;;;;;;;;-4.40;56.20;96877.41;1751344;80;21893;-68
2021/03/09 05:20:54;;;;;;;;;;;;;;;-4.33;56.12;96885.81;1756116;80;20205;-67
2021/03/09 05:23:21;;;;;;;;;;;;;;;-4.22;55.91;96880.24;1751565;80;20215;-66
2021/03/09 05:25:49;;;;;;;;;;;;;;;-4.12;55.65;96879.75;1750672;80;20267;-68
2021/03/09 05:28:17;;;;;;;;;;;;;;;-4.03;55.63;96882.22;1754523;81;21204;-70
2021/03/09 05:30:44;;;;;;;;;;;;;;;-3.95;55.36;96877.93;1755789;80;20219;-71
2021/03/09 05:33:11;;;;;;;;;;;;;;;-3.94;55.34;96880.03;1753929;80;20502;-63
2021/03/09 05:35:40;;;;;;;;;;;;;;;-3.91;55.35;96885.08;1758411;80;20215;-62
2021/03/09 05:38:07;;;;;;;;;;;;;;;-3.83;55.43;96884.58;1751105;81;20257;-65
2021/03/09 05:40:34;;;;;;;;;;;;;;;-3.77;55.21;96887.47;1741624;80;21225;-64
2021/03/09 05:43:04;;;;;;;;;;;;;;;-3.74;55.14;96891.25;1760962;80;20225;-66
2021/03/09 05:45:32;;;;;;;;;;;;;;;-3.68;55.28;96893.74;1746294;81;20237;-68
2021/03/09 05:48:00;;;;;;;;;;;;;;;-3.50;55.59;96890.19;1771317;80;20298;-65
2021/03/09 05:50:27;;;;;;;;;;;;;;;-3.35;54.66;96896.36;1754796;80;20520;-68
2021/03/09 05:52:55;;;;;;;;;;;;;;;-3.38;54.62;96895.56;1745663;82;23671;-68
2021/03/09 05:55:22;;;;;;;;;;;;;;;-3.40;54.74;96894.30;1746084;82;20258;-66
2021/03/09 05:57:50;;;;;;;;;;;;;;;-3.36;54.73;96891.30;1746041;81;20233;-67
2021/03/09 06:00:18;;;;;;;;;;;;;;;-3.23;54.98;96899.63;1745930;82;20308;-67
2021/03/09 06:02:47;;;;;;;;;;;;;;;-3.06;54.19;96895.21;1746021;82;20508;-67
2021/03/09 06:05:15;;;;;;;;;;;;;;;-3.06;54.08;96893.94;1746285;82;21612;-66
2021/03/09 06:07:42;;;;;;;;;;;;;;;-3.07;53.96;96900.30;1746095;82;20230;-66
2021/03/09 06:13:03;;;;;;;;;;;;;;;-3.00;54.22;96909.08;1694970;83;20217;-66
2021/03/09 06:15:31;;;;;;;;;;;;;;;-2.76;54.24;96913.47;1709062;84;20504;-66
2021/03/09 06:17:58;;;;;;;;;;;;;;;-2.47;53.63;96924.94;1708831;82;22148;-66
2021/03/09 06:20:30;;;;;;;;;;;;;;;-2.24;53.15;96927.16;1734615;82;20272;-65
2021/03/09 06:22:59;;;;;;;;;;;;;;;-2.04;52.92;96928.98;1709866;83;20212;-66
2021/03/09 06:25:31;;;;;;;;;;;;;;;-1.73;51.85;96927.24;1754850;81;20242;-67
2021/03/09 06:28:03;;;;;;;;;;;;;;;-1.45;50.51;96922.92;1765337;80;20221;-65
2021/03/09 06:30:36;;;;;;;;;;;;;;;-1.30;50.17;96930.72;1755630;81;22171;-65
2021/03/09 06:33:03;;;;;;;;;;;;;;;-0.71;48.84;96935.99;1755254;80;20225;-65
2021/03/09 06:35:39;;;;;;;;;;;;;;;0.47;47.43;96930.78;1750436;81;20237;-65
2021/03/09 06:38:24;;;;;;;;;;;;;;;1.68;45.06;96932.20;1728545;81;20294;-66
2021/03/09 06:41:19;;;;;;;;;;;;;;;2.20;43.44;96931.89;1755652;80;20303;-66
2021/03/09 06:44:01;;;;;;;;;;;;;;;2.46;42.20;96931.48;1757517;80;21275;-66
2021/03/09 06:46:29;;;;;;;;;;;;;;;3.06;40.54;96938.86;1757757;80;20502;-67
2021/03/09 06:49:01;;;;;;;;;;;;;;;3.58;40.50;96936.17;1776965;80;20213;-65
2021/03/09 06:51:34;;;;;;;;;;;;;;;3.80;39.15;96933.62;1753744;80;20500;-65
2021/03/09 06:54:04;;;;;;;;;;;;;;;3.81;39.07;96936.59;1754529;80;20521;-66
2021/03/09 06:56:32;;;;;;;;;;;;;;;3.63;39.18;96943.24;1757332;80;22121;-64
2021/03/09 06:59:19;;;;;;;;;;;;;;;3.49;39.36;96948.89;1785504;80;20542;-66
2021/03/09 07:02:11;;;;;;;;;;;;;;;3.44;39.33;96949.52;1764503;80;20235;-66
2021/03/09 07:04:41;;;;;;;;;;;;;;;3.69;38.93;96953.29;1755603;80;20492;-65
2021/03/09 07:07:10;;;;;;;;;;;;;;;4.53;37.75;96949.16;1755782;80;20224;-63
2021/03/09 07:09:40;;;;;;;;;;;;;;;5.54;36.36;96953.47;1744387;80;21361;-65
2021/03/09 07:12:11;;;;;;;;;;;;;;;6.55;34.08;96945.85;1749952;80;20217;-65
2021/03/09 07:14:39;;;;;;;;;;;;;;;7.02;33.84;96947.80;1754967;80;20212;-65
2021/03/09 07:17:07;;;;;;;;;;;;;;;7.07;33.32;96954.88;1754943;81;20983;-65
2021/03/09 07:19:43;;;;;;;;;;;;;;;6.72;34.21;96956.62;1784883;80;20226;-65
2021/03/09 07:22:13;;;;;;;;;;;;;;;6.65;33.89;96946.23;1786232;80;21241;-65
2021/03/09 07:25:05;;;;;;;;;;;;;;;6.89;34.16;96951.91;1738980;80;20219;-65
2021/03/09 07:27:40;;;;;;;;;;;;;;;7.87;33.28;96955.03;1740333;80;20280;-64
2021/03/09 07:30:10;;;;;;;;;;;;;;;8.86;30.79;96958.64;1755111;80;20935;-65
2021/03/09 07:32:42;;;;;;;;;;;;;;;9.51;30.92;96959.56;1750743;81;20213;-65
2021/03/09 07:35:11;;;;;;;;;;;;;;;10.48;30.17;96954.40;1735570;81;20519;-65
2021/03/09 07:37:40;;;;;;;;;;;;;;;11.55;29.08;96952.56;1738181;80;20273;-62
2021/03/09 07:40:11;;;;;;;;;;;;;;;12.67;28.16;96959.44;1749476;80;20503;-66
2021/03/09 07:42:38;;;;;;;;;;;;;;;13.78;26.66;96959.80;1750360;80;20213;-66
2021/03/09 07:45:20;;;;;;;;;;;;;;;14.65;25.87;96962.95;1729404;81;20294;-66
2021/03/09 07:47:56;;;;;;;;;;;;;;;15.23;25.27;96952.12;1740594;80;23453;-67
2021/03/09 07:50:24;;;;;;;;;;;;;;;15.54;24.63;96951.30;1753218;80;20208;-66
2021/03/09 07:53:10;;;;;;;;;;;;;;;15.69;24.41;96946.09;1755038;81;20233;-66
2021/03/09 07:55:37;;;;;;;;;;;;;;;16.27;24.13;96942.02;1725083;83;20574;-66
2021/03/09 07:58:25;;;;;;;;;;;;;;;17.09;23.29;96941.64;1739099;80;20229;-66
2021/03/09 08:01:03;;;;;;;;;;;;;;;17.71;22.68;96934.62;1755300;80;22166;-66
2021/03/09 08:03:32;;;;;;;;;;;;;;;18.14;22.00;96929.74;1729076;81;20219;-65
2021/03/09 08:06:04;;;;;;;;;;;;;;;18.58;21.58;96933.34;1725058;83;20222;-66
2021/03/09 08:08:53;;;;;;;;;;;;;;;18.94;21.11;96931.19;1755430;80;20230;-66
2021/03/09 08:11:24;;;;;;;;;;;;;;;19.29;20.61;96927.67;1784895;80;20219;-66
2021/03/09 08:14:07;;;;;;;;;;;;;;;19.80;20.37;96930.45;1729919;81;21830;-67
2021/03/09 08:16:38;;;;;;;;;;;;;;;20.25;19.77;96931.56;1723861;82;20237;-67
2021/03/09 08:19:14;;;;;;;;;;;;;;;20.51;19.64;96936.27;1735374;82;20222;-66
2021/03/09 08:21:51;;;;;;;;;;;;;;;20.45;19.46;96934.27;1753708;82;20219;-67
2021/03/09 08:24:19;;;;;;;;;;;;;;;19.90;19.99;96936.06;1723723;83;20246;-66
2021/03/09 08:26:48;;;;;;;;;;;;;;;19.48;20.04;96931.88;1723739;82;21235;-66
2021/03/09 08:29:31;;;;;;;;;;;;;;;18.91;20.13;96931.02;1725713;82;21775;-66
2021/03/09 08:32:25;;;;;;;;;;;;;;;17.79;21.08;96937.84;1726333;82;20218;-66
2021/03/09 08:35:15;;;;;;;;;;;;;;;17.03;21.72;96940.06;1753651;81;20261;-65
2021/03/09 08:37:49;;;;;;;;;;;;;;;17.15;21.83;96936.30;1730326;82;37109;-66
2021/03/09 08:40:21;;;;;;;;;;;;;;;17.89;21.18;96928.64;1694048;83;21365;-67
2021/03/09 08:43:10;;;;;;;;;;;;;;;18.59;20.48;96928.90;1737133;82;20218;-66
2021/03/09 08:45:42;;;;;;;;;;;;;;;18.88;20.16;96930.02;1753695;82;20235;-66
2021/03/09 08:48:11;;;;;;;;;;;;;;;18.85;19.64;96929.00;1753667;82;20218;-65
2021/03/09 08:50:46;;;;;;;;;;;;;;;18.27;19.53;96932.84;1731730;81;20216;-65
2021/03/09 08:53:28;;;;;;;;;;;;;;;17.43;20.33;96937.69;1722570;82;22119;-64
2021/03/09 08:55:56;;;;;;;;;;;;;;;16.38;21.35;96927.02;1723831;82;20253;-64
2021/03/09 08:58:23;;;;;;;;;;;;;;;15.19;22.58;96929.79;1708507;82;20256;-64
2021/03/09 09:00:52;;;;;;;;;;;;;;;14.13;23.71;96930.59;1726667;82;20221;-64
2021/03/09 09:03:32;;;;;;;;;;;;;;;13.02;25.10;96938.58;1695853;83;20538;-65
2021/03/09 09:05:59;;;;;;;;;;;;;;;11.91;26.25;96934.91;1723703;83;21272;-64
2021/03/09 09:08:26;;;;;;;;;;;;;;;10.86;27.40;96934.19;1731117;82;20227;-65
2021/03/09 09:10:59;;;;;;;;;;;;;;;10.03;28.55;96933.48;1694020;84;20233;-64
2021/03/09 09:13:27;;;;;;;;;;;;;;;9.38;29.62;96931.80;1731796;80;20317;-64
2021/03/09 09:15:54;;;;;;;;;;;;;;;8.86;30.28;96931.47;1731764;83;20220;-63
2021/03/09 09:18:22;;;;;;;;;;;;;;;8.38;30.83;96931.09;1732275;81;21137;-64
2021/03/09 09:20:50;;;;;;;;;;;;;;;8.22;31.43;96936.75;1731645;81;20228;-65
2021/03/09 09:23:21;;;;;;;;;;;;;;;8.94;31.23;96928.80;1731678;83;20236;-65
2021/03/09 09:25:52;;;;;;;;;;;;;;;10.34;29.62;96929.80;1731715;81;20221;-65
2021/03/09 09:28:34;;;;;;;;;;;;;;;12.08;27.33;96917.27;1833143;76;20188;-64
2021/03/09 09:31:12;;;;;;;;;;;;;;;13.37;25.03;96926.02;1786176;79;20231;-65
2021/03/09 09:33:43;;;;;;;;;;;;;;;14.50;23.81;96921.91;1766641;81;21197;-66
2021/03/09 09:36:10;;;;;;;;;;;;;;;15.11;22.71;96926.17;1751049;81;20263;-63
2021/03/09 09:38:38;;;;;;;;;;;;;;;14.94;21.98;96927.09;1738480;82;20235;-63
2021/03/09 09:41:06;;;;;;;;;;;;;;;14.24;22.30;96931.02;1738477;82;20159;-63
2021/03/09 09:43:35;;;;;;;;;;;;;;;13.49;23.15;96929.94;1725213;82;21726;-64
2021/03/09 09:46:04;;;;;;;;;;;;;;;12.69;23.67;96930.20;1762964;81;23352;-64
2021/03/09 09:48:32;;;;;;;;;;;;;;;11.92;24.28;96928.78;1773528;81;20490;-65
2021/03/09 09:51:02;;;;;;;;;;;;;;;11.79;24.49;96935.72;1738174;82;20222;-64
2021/03/09 09:53:38;;;;;;;;;;;;;;;12.49;25.45;96927.28;1744292;81;20549;-64
2021/03/09 09:56:08;;;;;;;;;;;;;;;12.89;24.57;96926.97;1743524;81;20219;-64
2021/03/09 09:58:57;;;;;;;;;;;;;;;12.73;24.29;96933.41;1743697;81;21994;-64
2021/03/09 10:01:38;;;;;;;;;;;;;;;12.21;24.70;96943.25;1769819;81;20291;-62
2021/03/09 10:04:07;;;;;;;;;;;;;;;11.48;25.57;96937.86;1743519;82;20498;-63
2021/03/09 10:06:39;;;;;;;;;;;;;;;10.59;26.88;96942.48;1743424;82;20305;-63
2021/03/09 10:09:23;;;;;;;;;;;;;;;9.74;27.27;96942.62;1743566;82;20238;-63
2021/03/09 10:12:01;;;;;;;;;;;;;;;9.12;27.97;96932.06;1715608;80;21382;-63
2021/03/09 10:14:31;;;;;;;;;;;;;;;8.57;29.91;96933.96;1742699;82;20223;-63
2021/03/09 10:17:02;;;;;;;;;;;;;;;8.09;30.86;96933.57;1716922;80;20240;-64
2021/03/09 10:19:34;;;;;;;;;;;;;;;8.19;31.15;96930.02;1713659;83;20271;-64
2021/03/09 10:22:02;;;;;;;;;;;;;;;9.13;30.57;96932.44;1713685;83;20224;-64
2021/03/09 10:24:32;;;;;;;;;;;;;;;10.31;29.34;96923.48;1712101;83;21284;-64
2021/03/09 10:27:00;;;;;;;;;;;;;;;11.40;27.69;96918.08;1732809;81;20593;-65
2021/03/09 10:29:29;;;;;;;;;;;;;;;12.42;26.62;96918.28;1743170;82;20293;-63
2021/03/09 10:31:58;;;;;;;;;;;;;;;13.04;25.22;96923.69;1743453;82;20230;-64
2021/03/09 10:34:44;;;;;;;;;;;;;;;13.06;24.66;96928.78;1743487;82;20222;-64
2021/03/09 10:37:13;;;;;;;;;;;;;;;12.61;24.70;96925.55;1718481;82;20642;-64
2021/03/09 10:40:00;;;;;;;;;;;;;;;11.78;25.25;96929.70;1732772;80;20610;-63
2021/03/09 10:42:30;;;;;;;;;;;;;;;11.04;25.89;96934.73;1742133;82;20499;-63
2021/03/09 10:45:00;;;;;;;;;;;;;;;10.24;26.44;96928.70;1720769;82;20228;-64
2021/03/09 10:47:28;;;;;;;;;;;;;;;9.56;27.01;96935.03;1695462;82;20241;-64
2021/03/09 10:49:55;;;;;;;;;;;;;;;9.03;27.66;96937.33;1713298;82;22006;-65
2021/03/09 10:52:23;;;;;;;;;;;;;;;8.63;28.36;96932.33;1731439;82;22009;-62
2021/03/09 10:54:52;;;;;;;;;;;;;;;8.23;29.34;96937.96;1734887;81;20228;-64
2021/03/09 10:57:21;;;;;;;;;;;;;;;7.85;29.80;96931.03;1712752;82;20228;-63
2021/03/09 10:59:49;;;;;;;;;;;;;;;7.59;30.71;96935.83;1713221;82;20232;-63
2021/03/09 11:02:17;;;;;;;;;;;;;;;7.31;31.27;96932.58;1713267;83;21091;-63
2021/03/09 11:04:44;;;;;;;;;;;;;;;7.08;31.92;96934.59;1713093;82;20507;-63
2021/03/09 11:07:12;;;;;;;;;;;;;;;6.82;32.32;96933.32;1713257;83;20253;-63
2021/03/09 11:09:40;;;;;;;;;;;;;;;6.62;32.92;96939.01;1722372;82;20290;-65
2021/03/09 11:12:07;;;;;;;;;;;;;;;6.63;33.47;96942.45;1742965;82;20219;-64
2021/03/09 11:14:34;;;;;;;;;;;;;;;6.95;33.05;96934.38;1715347;82;22165;-64
2021/03/09 11:17:02;;;;;;;;;;;;;;;7.22;32.81;96929.17;1713162;82;20224;-61
2021/03/09 11:19:30;;;;;;;;;;;;;;;7.27;32.53;96926.75;1713340;83;20527;-63
2021/03/09 11:21:58;;;;;;;;;;;;;;;7.17;32.80;96926.82;1713297;83;20232;-64
2021/03/09 11:24:25;;;;;;;;;;;;;;;7.09;33.26;96924.66;1735441;82;20222;-63
2021/03/09 11:26:58;;;;;;;;;;;;;;;7.13;33.40;96933.07;1713478;83;21375;-64
2021/03/09 11:29:22;;;;;;;;;;;;;;;7.37;33.03;96921.48;1716352;82;20228;-64
2021/03/09 11:31:49;;;;;;;;;;;;;;;7.68;33.40;96920.30;1734271;82;20481;-63
2021/03/09 11:34:16;;;;;;;;;;;;;;;7.65;33.22;96911.45;1719255;82;20257;-64
2021/03/09 11:36:45;;;;;;;;;;;;;;;7.53;33.39;96908.60;1746272;82;20238;-64
2021/03/09 11:39:12;;;;;;;;;;;;;;;7.53;33.42;96905.16;1723909;82;21108;-64
2021/03/09 11:41:39;;;;;;;;;;;;;;;7.53;33.48;96909.89;1716773;83;20303;-65
2021/03/09 11:44:07;;;;;;;;;;;;;;;7.53;33.47;96903.44;1734036;82;20233;-64
2021/03/09 11:46:35;;;;;;;;;;;;;;;7.37;33.51;96900.83;1744316;82;20234;-63
2021/03/09 11:49:06;;;;;;;;;;;;;;;7.19;33.51;96899.22;1708350;83;20224;-64
2021/03/09 11:51:34;;;;;;;;;;;;;;;7.05;33.47;96899.91;1731148;82;21017;-63
2021/03/09 11:54:01;;;;;;;;;;;;;;;6.93;33.32;96893.64;1716783;83;20511;-63
2021/03/09 11:56:29;;;;;;;;;;;;;;;6.79;33.20;96890.91;1716827;83;20260;-64
2021/03/09 11:58:57;;;;;;;;;;;;;;;6.80;33.32;96896.00;1718750;82;20224;-63
2021/03/09 12:01:24;;;;;;;;;;;;;;;6.87;32.83;96894.41;1716971;82;20504;-63
2021/03/09 12:03:55;;;;;;;;;;;;;;;6.87;32.38;96890.08;1716883;83;22318;-64
2021/03/09 12:06:23;;;;;;;;;;;;;;;6.79;32.43;96890.48;1716809;83;20225;-64
2021/03/09 12:08:50;;;;;;;;;;;;;;;6.85;32.55;96891.08;1726872;81;20297;-64
2021/03/09 12:11:17;;;;;;;;;;;;;;;6.89;32.50;96883.55;1716801;83;20249;-64
2021/03/09 12:13:44;;;;;;;;;;;;;;;6.97;32.17;96888.72;1716949;82;20252;-64
2021/03/09 12:16:11;;;;;;;;;;;;;;;6.98;32.20;96886.95;1716800;83;21344;-64
2021/03/09 12:18:39;;;;;;;;;;;;;;;6.77;32.05;96883.72;1728779;82;20238;-64
2021/03/09 12:21:06;;;;;;;;;;;;;;;6.40;32.41;96870.92;1746503;82;20210;-64
2021/03/09 12:23:33;;;;;;;;;;;;;;;6.03;32.88;96875.73;1746488;82;20226;-64
2021/03/09 12:26:02;;;;;;;;;;;;;;;5.85;33.14;96879.52;1736577;82;20501;-65
2021/03/09 12:28:29;;;;;;;;;;;;;;;5.84;33.20;96883.48;1746144;81;21367;-64
2021/03/09 12:30:56;;;;;;;;;;;;;;;5.85;33.56;96878.70;1732526;82;20228;-64
2021/03/09 12:33:24;;;;;;;;;;;;;;;5.92;33.42;96870.23;1729631;82;20222;-65
2021/03/09 12:35:52;;;;;;;;;;;;;;;6.01;33.56;96864.22;1730946;82;20619;-64
2021/03/09 12:38:19;;;;;;;;;;;;;;;6.41;33.75;96866.16;1731821;83;21681;-64
2021/03/09 12:40:46;;;;;;;;;;;;;;;6.90;33.30;96856.85;1728692;83;21272;-64
2021/03/09 12:43:13;;;;;;;;;;;;;;;7.23;32.24;96867.63;1716847;82;20228;-64
2021/03/09 12:45:41;;;;;;;;;;;;;;;7.46;31.37;96862.52;1711948;84;20228;-64
2021/03/09 12:48:09;;;;;;;;;;;;;;;7.65;30.97;96859.33;1711884;82;20229;-65
2021/03/09 12:50:38;;;;;;;;;;;;;;;7.79;30.88;96858.56;1711746;84;20228;-64
2021/03/09 12:53:05;;;;;;;;;;;;;;;7.80;30.68;96859.41;1712572;82;21218;-64
2021/03/09 12:55:33;;;;;;;;;;;;;;;7.78;30.34;96861.22;1741436;82;20222;-64
2021/03/09 12:58:00;;;;;;;;;;;;;;;7.64;30.37;96855.06;1733492;82;20288;-64
2021/03/09 13:00:27;;;;;;;;;;;;;;;7.51;29.84;96859.23;1711844;82;20511;-65
2021/03/09 13:02:55;;;;;;;;;;;;;;;7.34;30.13;96858.86;1711848;82;20253;-64
2021/03/09 13:05:22;;;;;;;;;;;;;;;7.15;30.26;96854.67;1711994;84;20513;-63
2021/03/09 13:07:51;;;;;;;;;;;;;;;6.92;30.33;96849.39;1711714;84;20238;-64
2021/03/09 13:10:18;;;;;;;;;;;;;;;6.62;30.23;96847.94;1711933;84;20224;-63